Time;durP1;ratioP1;P1;durP2;ratioP2;P2;SDS_P1;SDS_P2;PMS_P1;PMS_P2;Temp;Humidity;BMP_temperature;BMP_pressure;BME280_temperature;BME280_humidity;BME280_pressure;Samples;Min_cycle;Max_cycle;Signal;HPM_P1;HPM_P2
2023/01/29 00:02:17;;;;;;;7.88;3.22;;;;;;;;;;5032143;28;20026;-68
2023/01/29 00:04:42;;;;;;;6.10;3.10;;;;;;;;;;5032011;28;20492;-72
2023/01/29 00:07:08;;;;;;;4.28;3.03;;;;;;;;;;5032498;28;20028;-71
2023/01/29 00:09:33;;;;;;;5.85;3.78;;;;;;;;;;5032358;28;20021;-70
2023/01/29 00:11:58;;;;;;;5.78;3.45;;;;;;;;;;5032192;28;20382;-71
2023/01/29 00:14:26;;;;;;;8.07;3.88;;;;;;;;;;5032190;28;20021;-69
2023/01/29 00:16:51;;;;;;;7.07;3.50;;;;;;;;;;5032159;28;20126;-72
2023/01/29 00:19:17;;;;;;;6.72;3.13;;;;;;;;;;5033033;28;20385;-72
2023/01/29 00:21:42;;;;;;;5.45;3.30;;;;;;;;;;5036224;28;20087;-72
2023/01/29 00:24:07;;;;;;;5.68;3.30;;;;;;;;;;5036111;28;20385;-72
2023/01/29 00:26:33;;;;;;;5.35;3.50;;;;;;;;;;5036181;28;20022;-71
2023/01/29 00:29:01;;;;;;;6.22;3.58;;;;;;;;;;5036002;28;20589;-71
2023/01/29 00:31:27;;;;;;;7.47;3.90;;;;;;;;;;5035876;28;20029;-71
2023/01/29 00:33:52;;;;;;;5.13;3.28;;;;;;;;;;5036025;28;20521;-71
2023/01/29 00:36:19;;;;;;;6.15;3.63;;;;;;;;;;5035788;28;20029;-71
2023/01/29 00:38:53;;;;;;;4.97;3.33;;;;;;;;;;5035985;28;20052;-72
2023/01/29 00:46:50;;;;;;;9.07;3.88;;;;;;;;;;5035948;28;20607;-69
2023/01/29 00:49:16;;;;;;;9.85;4.22;;;;;;;;;;5035714;28;20112;-71
2023/01/29 00:51:41;;;;;;;7.90;4.00;;;;;;;;;;5035574;28;20029;-71
2023/01/29 00:54:06;;;;;;;5.68;3.58;;;;;;;;;;5035706;28;20026;-72
2023/01/29 00:56:34;;;;;;;6.85;3.83;;;;;;;;;;5035622;28;20033;-71
2023/01/29 00:59:00;;;;;;;7.43;3.97;;;;;;;;;;5035651;28;20087;-71
2023/01/29 01:04:10;;;;;;;9.82;4.05;;;;;;;;;;5035432;28;20037;-72
2023/01/29 01:06:40;;;;;;;8.98;4.20;;;;;;;;;;5035569;28;20029;-69
2023/01/29 01:11:51;;;;;;;9.30;4.15;;;;;;;;;;5035357;28;20044;-67
2023/01/29 01:14:18;;;;;;;10.15;5.30;;;;;;;;;;5034973;28;20382;-69
2023/01/29 01:16:45;;;;;;;9.80;4.57;;;;;;;;;;5035492;28;20021;-70
2023/01/29 01:19:11;;;;;;;8.27;4.72;;;;;;;;;;5035166;28;20394;-70
2023/01/29 01:21:37;;;;;;;9.38;4.75;;;;;;;;;;5035123;28;20021;-70
2023/01/29 01:24:04;;;;;;;10.65;4.70;;;;;;;;;;5035213;28;20068;-70
2023/01/29 01:26:30;;;;;;;11.65;5.32;;;;;;;;;;5035140;28;20072;-68
2023/01/29 01:31:31;;;;;;;12.48;5.70;;;;;;;;;;5452126;22;20054;-73
2023/01/29 01:33:56;;;;;;;10.57;5.45;;;;;;;;;;5015180;28;20044;-71
2023/01/29 01:36:22;;;;;;;10.48;5.00;;;;;;;;;;5014885;28;20374;-69
2023/01/29 01:38:47;;;;;;;11.30;5.78;;;;;;;;;;5010514;28;20113;-69
2023/01/29 01:41:19;;;;;;;10.10;5.13;;;;;;;;;;5012165;28;20447;-68
2023/01/29 01:43:58;;;;;;;10.65;5.35;;;;;;;;;;5008983;28;20015;-68
2023/01/29 01:46:24;;;;;;;11.45;5.88;;;;;;;;;;5005690;28;20022;-69
2023/01/29 01:49:14;;;;;;;7.65;5.15;;;;;;;;;;5011384;28;20021;-68
2023/01/29 01:51:43;;;;;;;18.00;6.75;;;;;;;;;;5006618;28;20037;-67
2023/01/29 01:54:14;;;;;;;9.27;5.30;;;;;;;;;;5004940;28;20026;-67
2023/01/29 01:56:44;;;;;;;11.07;6.30;;;;;;;;;;5013837;28;20026;-67
2023/01/29 01:59:12;;;;;;;9.27;5.80;;;;;;;;;;5014651;28;20151;-67
2023/01/29 02:01:41;;;;;;;12.35;6.68;;;;;;;;;;5014531;28;20080;-66
2023/01/29 02:09:57;;;;;;;11.02;5.60;;;;;;;;;;5014729;28;20028;-66
2023/01/29 02:12:23;;;;;;;9.93;5.30;;;;;;;;;;5014206;28;20041;-66
2023/01/29 02:14:50;;;;;;;10.15;5.90;;;;;;;;;;5014143;28;20366;-71
2023/01/29 02:17:18;;;;;;;10.52;5.35;;;;;;;;;;5014318;28;20025;-70
2023/01/29 02:19:58;;;;;;;11.65;6.05;;;;;;;;;;5014151;28;20076;-70
2023/01/29 02:22:38;;;;;;;;;;;;;;;;;;5015115;28;20030;-72
2023/01/29 02:25:09;;;;;;;11.15;5.65;;;;;;;;;;5014518;28;19913;-69
2023/01/29 02:27:47;;;;;;;12.38;5.60;;;;;;;;;;5014392;28;20471;-69
2023/01/29 02:30:24;;;;;;;11.60;5.97;;;;;;;;;;5013927;28;20030;-67
2023/01/29 02:33:21;;;;;;;13.85;6.45;;;;;;;;;;4993338;28;20042;-69
2023/01/29 02:36:15;;;;;;;10.23;6.00;;;;;;;;;;4990502;28;20066;-69
2023/01/29 02:38:53;;;;;;;11.90;5.80;;;;;;;;;;4994500;28;20041;-70
2023/01/29 02:41:30;;;;;;;10.63;5.57;;;;;;;;;;4994194;28;20034;-70
2023/01/29 02:43:59;;;;;;;12.55;6.13;;;;;;;;;;4994011;28;20128;-69
2023/01/29 02:46:35;;;;;;;12.02;6.00;;;;;;;;;;4994298;28;20026;-69
2023/01/29 02:49:20;;;;;;;10.05;5.70;;;;;;;;;;4994407;28;20023;-68
2023/01/29 02:51:59;;;;;;;11.95;6.82;;;;;;;;;;4994347;28;20030;-67
2023/01/29 02:55:01;;;;;;;12.80;6.13;;;;;;;;;;4994507;28;20062;-67
2023/01/29 02:57:31;;;;;;;9.95;6.32;;;;;;;;;;4987312;28;20050;-66
2023/01/29 03:00:05;;;;;;;11.57;6.25;;;;;;;;;;4994387;28;20109;-67
2023/01/29 03:02:42;;;;;;;9.48;6.40;;;;;;;;;;4994181;28;20042;-67
2023/01/29 03:05:13;;;;;;;13.40;6.47;;;;;;;;;;5000122;28;20543;-69
2023/01/29 03:07:44;;;;;;;8.77;5.78;;;;;;;;;;5013909;28;20057;-69
2023/01/29 03:10:26;;;;;;;9.90;6.40;;;;;;;;;;5013473;28;20026;-71
2023/01/29 03:12:59;;;;;;;10.75;6.30;;;;;;;;;;5013090;28;20053;-69
2023/01/29 03:15:37;;;;;;;11.27;6.55;;;;;;;;;;5013459;28;20030;-71
2023/01/29 03:18:10;;;;;;;11.68;6.55;;;;;;;;;;5013490;28;20488;-71
2023/01/29 03:20:49;;;;;;;12.02;6.60;;;;;;;;;;5013445;28;20042;-71
2023/01/29 03:23:46;;;;;;;10.45;5.90;;;;;;;;;;5013384;28;20121;-71
2023/01/29 03:34:33;;;;;;;12.65;6.60;;;;;;;;;;5033203;28;20048;-72
2023/01/29 03:37:12;;;;;;;9.98;6.00;;;;;;;;;;5031619;28;20025;-71
2023/01/29 03:39:38;;;;;;;12.27;6.40;;;;;;;;;;5032848;28;20036;-72
2023/01/29 03:42:23;;;;;;;11.20;7.00;;;;;;;;;;5032527;28;20029;-71
2023/01/29 03:45:04;;;;;;;13.63;6.40;;;;;;;;;;5032703;28;20099;-72
2023/01/29 03:47:33;;;;;;;11.07;6.72;;;;;;;;;;5032697;28;20432;-71
2023/01/29 03:50:04;;;;;;;11.52;6.85;;;;;;;;;;5032704;28;20127;-67
2023/01/29 03:53:01;;;;;;;10.55;6.78;;;;;;;;;;5032778;28;20035;-71
2023/01/29 03:55:47;;;;;;;11.43;6.95;;;;;;;;;;5032375;28;20501;-69
2023/01/29 03:58:29;;;;;;;10.02;5.88;;;;;;;;;;5032474;28;20029;-69
2023/01/29 04:01:01;;;;;;;13.10;6.90;;;;;;;;;;5032441;28;20024;-69
2023/01/29 04:03:30;;;;;;;12.25;6.75;;;;;;;;;;5032556;28;20116;-70
2023/01/29 04:06:12;;;;;;;14.23;7.70;;;;;;;;;;5032570;28;20029;-69
2023/01/29 04:08:47;;;;;;;13.40;6.95;;;;;;;;;;5032711;28;20018;-69
2023/01/29 04:11:17;;;;;;;12.20;7.30;;;;;;;;;;5032279;28;20046;-70
2023/01/29 04:13:43;;;;;;;12.68;6.78;;;;;;;;;;5032467;28;20470;-71
2023/01/29 04:16:14;;;;;;;14.82;7.20;;;;;;;;;;5032503;28;20044;-72
2023/01/29 04:18:43;;;;;;;12.38;6.68;;;;;;;;;;5031208;28;20061;-68
2023/01/29 04:21:08;;;;;;;16.88;8.85;;;;;;;;;;5032426;28;20116;-71
2023/01/29 04:23:33;;;;;;;14.85;7.55;;;;;;;;;;5032376;28;20176;-68
2023/01/29 04:26:17;;;;;;;12.75;7.70;;;;;;;;;;5032101;28;20034;-68
2023/01/29 04:28:58;;;;;;;15.77;7.75;;;;;;;;;;5032229;28;20033;-69
2023/01/29 04:31:31;;;;;;;17.55;7.80;;;;;;;;;;5028596;28;20050;-69
2023/01/29 04:34:02;;;;;;;15.68;8.10;;;;;;;;;;4993072;28;20168;-71
2023/01/29 04:36:42;;;;;;;16.58;8.13;;;;;;;;;;4992984;28;20029;-71
2023/01/29 04:39:11;;;;;;;16.05;8.25;;;;;;;;;;4992854;28;20491;-70
2023/01/29 04:41:56;;;;;;;15.73;8.77;;;;;;;;;;4992755;28;20076;-71
2023/01/29 04:44:37;;;;;;;13.85;8.95;;;;;;;;;;5007890;28;21120;-70
2023/01/29 04:47:15;;;;;;;15.43;7.43;;;;;;;;;;4992497;28;20061;-70
2023/01/29 04:50:03;;;;;;;20.35;9.73;;;;;;;;;;4992817;28;20565;-68
2023/01/29 04:52:38;;;;;;;18.85;9.75;;;;;;;;;;5007794;28;20060;-69
2023/01/29 04:55:11;;;;;;;18.42;9.20;;;;;;;;;;4992585;28;20018;-69
2023/01/29 04:57:51;;;;;;;19.33;9.57;;;;;;;;;;4992765;28;20031;-70
2023/01/29 05:00:19;;;;;;;;;;;;;;;;;;4993047;28;20436;-70
2023/01/29 05:02:45;;;;;;;19.85;8.38;;;;;;;;;;4992738;28;20023;-70
2023/01/29 05:05:13;;;;;;;23.08;9.65;;;;;;;;;;4993395;28;20065;-69
2023/01/29 05:07:41;;;;;;;17.95;9.23;;;;;;;;;;4995860;28;20054;-67
2023/01/29 05:10:09;;;;;;;19.98;8.73;;;;;;;;;;4996130;28;20022;-70
2023/01/29 05:12:36;;;;;;;20.17;8.88;;;;;;;;;;4996067;28;20041;-70
2023/01/29 05:15:07;;;;;;;21.25;9.40;;;;;;;;;;4996054;28;20026;-69
2023/01/29 05:17:33;;;;;;;15.52;8.02;;;;;;;;;;4996227;28;20027;-69
2023/01/29 05:19:58;;;;;;;19.33;8.85;;;;;;;;;;4996063;28;20360;-69
2023/01/29 05:22:25;;;;;;;19.67;9.55;;;;;;;;;;4995849;28;20030;-70
2023/01/29 05:24:50;;;;;;;20.73;9.48;;;;;;;;;;4995937;28;20026;-69
2023/01/29 05:30:03;;;;;;;20.88;9.05;;;;;;;;;;4996121;28;20033;-70
2023/01/29 05:32:29;;;;;;;17.40;8.68;;;;;;;;;;5005907;28;20077;-69
2023/01/29 05:34:54;;;;;;;18.27;9.52;;;;;;;;;;5015303;28;20032;-69
2023/01/29 05:37:20;;;;;;;16.20;9.45;;;;;;;;;;5015030;28;20402;-70
2023/01/29 05:39:45;;;;;;;20.00;9.15;;;;;;;;;;5015122;28;20026;-71
2023/01/29 05:42:10;;;;;;;15.95;8.90;;;;;;;;;;5015140;28;20022;-70
2023/01/29 05:44:36;;;;;;;16.25;7.60;;;;;;;;;;5015056;28;20025;-71
2023/01/29 05:47:01;;;;;;;15.30;8.68;;;;;;;;;;5015019;28;20109;-66
2023/01/29 05:49:27;;;;;;;17.40;8.90;;;;;;;;;;5015082;28;20692;-71
2023/01/29 05:51:52;;;;;;;19.55;9.75;;;;;;;;;;5014724;28;20068;-69
2023/01/29 05:54:18;;;;;;;19.27;9.95;;;;;;;;;;5015004;28;20026;-69
2023/01/29 05:56:43;;;;;;;16.17;9.07;;;;;;;;;;5014875;28;20190;-70
2023/01/29 05:59:09;;;;;;;22.00;10.20;;;;;;;;;;5014978;28;20065;-68
2023/01/29 06:01:35;;;;;;;17.65;9.70;;;;;;;;;;5014864;28;20026;-71
2023/01/29 06:04:00;;;;;;;18.23;8.52;;;;;;;;;;5014822;28;20411;-70
2023/01/29 06:06:26;;;;;;;21.95;10.95;;;;;;;;;;5013279;28;20029;-71
2023/01/29 06:08:51;;;;;;;19.42;9.68;;;;;;;;;;5014544;28;20543;-69
2023/01/29 06:11:17;;;;;;;20.85;10.35;;;;;;;;;;5014712;28;20034;-69
2023/01/29 06:13:44;;;;;;;20.33;10.00;;;;;;;;;;5014540;28;20038;-71
2023/01/29 06:16:10;;;;;;;20.83;9.25;;;;;;;;;;5014195;28;20106;-71
2023/01/29 06:18:36;;;;;;;20.55;10.32;;;;;;;;;;5013651;28;20371;-71
2023/01/29 06:21:08;;;;;;;22.65;10.23;;;;;;;;;;5012860;28;20080;-71
2023/01/29 06:23:34;;;;;;;20.73;10.20;;;;;;;;;;5014417;28;20032;-70
2023/01/29 06:26:05;;;;;;;18.38;9.80;;;;;;;;;;5014335;28;20034;-70
2023/01/29 06:28:31;;;;;;;24.02;9.90;;;;;;;;;;5014367;28;20072;-69
2023/01/29 06:30:58;;;;;;;19.67;10.52;;;;;;;;;;5013895;28;20063;-70
2023/01/29 06:33:24;;;;;;;17.35;10.07;;;;;;;;;;5032024;28;20052;-69
2023/01/29 06:35:57;;;;;;;19.77;9.63;;;;;;;;;;5033812;28;20486;-70
2023/01/29 06:38:23;;;;;;;17.10;9.23;;;;;;;;;;5033610;28;20052;-70
2023/01/29 06:40:48;;;;;;;19.88;9.85;;;;;;;;;;5033865;28;20029;-70
2023/01/29 06:43:14;;;;;;;20.75;10.02;;;;;;;;;;5032501;28;20037;-71
2023/01/29 06:45:46;;;;;;;21.88;8.98;;;;;;;;;;5033850;28;20041;-71
2023/01/29 06:48:12;;;;;;;21.52;9.68;;;;;;;;;;5032127;28;20326;-68
2023/01/29 06:50:37;;;;;;;21.23;9.90;;;;;;;;;;5028946;28;20021;-69
2023/01/29 06:53:02;;;;;;;19.65;9.38;;;;;;;;;;5013528;28;20021;-68
2023/01/29 06:55:28;;;;;;;20.20;9.43;;;;;;;;;;5013912;28;20021;-70
2023/01/29 06:57:53;;;;;;;22.35;10.43;;;;;;;;;;5013735;28;20537;-71
2023/01/29 07:00:19;;;;;;;20.25;10.00;;;;;;;;;;5013719;28;20033;-69
2023/01/29 07:02:48;;;;;;;19.63;9.40;;;;;;;;;;5012439;28;20022;-69
2023/01/29 07:05:13;;;;;;;20.50;10.05;;;;;;;;;;5013495;28;20022;-69
2023/01/29 07:07:39;;;;;;;23.63;10.35;;;;;;;;;;5013410;28;20034;-70
2023/01/29 07:10:05;;;;;;;25.08;11.23;;;;;;;;;;5013515;28;20041;-69
2023/01/29 07:12:30;;;;;;;21.13;10.15;;;;;;;;;;5013511;28;20026;-70
2023/01/29 07:14:56;;;;;;;22.73;10.60;;;;;;;;;;5013335;28;20160;-69
2023/01/29 07:17:21;;;;;;;22.67;10.00;;;;;;;;;;5013478;28;20466;-71
2023/01/29 07:19:46;;;;;;;22.02;10.68;;;;;;;;;;5013131;28;20082;-68
2023/01/29 07:22:13;;;;;;;23.63;9.75;;;;;;;;;;5013296;28;20033;-72
2023/01/29 07:24:38;;;;;;;21.17;9.85;;;;;;;;;;5013382;28;20109;-70
2023/01/29 07:27:04;;;;;;;24.25;11.13;;;;;;;;;;5013220;28;20064;-71
2023/01/29 07:29:29;;;;;;;24.45;11.13;;;;;;;;;;5012962;28;20125;-70
2023/01/29 07:31:55;;;;;;;23.13;9.73;;;;;;;;;;5018585;28;20045;-69
2023/01/29 07:34:20;;;;;;;21.35;10.20;;;;;;;;;;5032636;28;20030;-69
2023/01/29 07:36:46;;;;;;;23.42;11.07;;;;;;;;;;5032927;28;20021;-70
2023/01/29 07:39:11;;;;;;;26.25;10.88;;;;;;;;;;5032701;28;20112;-71
2023/01/29 07:41:37;;;;;;;25.48;10.80;;;;;;;;;;5032789;28;20047;-70
2023/01/29 07:44:02;;;;;;;26.35;10.63;;;;;;;;;;5032715;28;20500;-68
2023/01/29 07:46:27;;;;;;;29.00;11.10;;;;;;;;;;5032749;28;20037;-71
2023/01/29 07:48:53;;;;;;;18.35;9.07;;;;;;;;;;5032393;28;20033;-70
2023/01/29 07:51:20;;;;;;;26.40;11.18;;;;;;;;;;5032477;28;20060;-70
2023/01/29 07:53:46;;;;;;;24.95;10.70;;;;;;;;;;5032526;28;20497;-72
2023/01/29 07:56:11;;;;;;;27.85;11.70;;;;;;;;;;5032622;28;20037;-71
2023/01/29 07:58:36;;;;;;;31.77;11.80;;;;;;;;;;5032443;28;20129;-71
2023/01/29 08:01:06;;;;;;;25.40;11.43;;;;;;;;;;5021264;28;20079;-69
2023/01/29 08:03:32;;;;;;;30.20;12.82;;;;;;;;;;5003309;28;20108;-70
2023/01/29 08:05:57;;;;;;;25.75;12.32;;;;;;;;;;5007169;28;20076;-71
2023/01/29 08:08:22;;;;;;;29.20;12.23;;;;;;;;;;5004243;28;20390;-70
2023/01/29 08:10:48;;;;;;;30.33;12.48;;;;;;;;;;5006621;28;20025;-70
2023/01/29 08:13:13;;;;;;;30.40;13.25;;;;;;;;;;5012384;28;20120;-71
2023/01/29 08:15:43;;;;;;;31.92;13.32;;;;;;;;;;5012311;28;20582;-69
2023/01/29 08:18:08;;;;;;;26.40;11.10;;;;;;;;;;5012191;28;20034;-68
2023/01/29 08:20:34;;;;;;;29.48;12.35;;;;;;;;;;5012144;28;20032;-67
2023/01/29 08:23:06;;;;;;;32.78;13.90;;;;;;;;;;5012252;28;20022;-67
2023/01/29 08:25:32;;;;;;;31.67;12.68;;;;;;;;;;5012198;28;20034;-67
2023/01/29 08:27:58;;;;;;;27.30;12.05;;;;;;;;;;5012151;28;20030;-68
2023/01/29 08:30:29;;;;;;;32.60;12.55;;;;;;;;;;5011982;28;20079;-67
2023/01/29 08:32:55;;;;;;;28.63;12.50;;;;;;;;;;5020872;28;20037;-69
2023/01/29 08:35:20;;;;;;;32.78;14.43;;;;;;;;;;5006826;28;20026;-69
2023/01/29 08:37:53;;;;;;;31.02;12.35;;;;;;;;;;5000729;28;20034;-69
2023/01/29 08:40:18;;;;;;;32.53;13.32;;;;;;;;;;4998944;28;20045;-68
2023/01/29 08:42:44;;;;;;;38.50;13.77;;;;;;;;;;4996023;28;20042;-69
2023/01/29 08:45:10;;;;;;;28.23;12.82;;;;;;;;;;4995347;28;20031;-69
2023/01/29 08:47:35;;;;;;;33.83;14.88;;;;;;;;;;4996132;28;20045;-70
2023/01/29 08:50:00;;;;;;;26.50;12.77;;;;;;;;;;4995118;28;20205;-70
2023/01/29 08:52:26;;;;;;;32.00;12.73;;;;;;;;;;4995585;28;20041;-70
2023/01/29 08:54:51;;;;;;;30.17;12.70;;;;;;;;;;4995669;28;20189;-70
2023/01/29 08:57:17;;;;;;;27.85;12.98;;;;;;;;;;4995899;28;20026;-70
2023/01/29 08:59:42;;;;;;;29.40;12.45;;;;;;;;;;4996022;28;20029;-69
2023/01/29 09:02:10;;;;;;;30.30;13.00;;;;;;;;;;4993510;28;20418;-70
2023/01/29 09:04:35;;;;;;;35.80;13.20;;;;;;;;;;4994320;28;20313;-68
2023/01/29 09:07:00;;;;;;;36.65;13.88;;;;;;;;;;4994317;28;20029;-69
2023/01/29 09:09:26;;;;;;;33.70;14.52;;;;;;;;;;4994273;28;20080;-70
2023/01/29 09:11:51;;;;;;;33.33;14.02;;;;;;;;;;4994155;28;20019;-69
2023/01/29 09:14:17;;;;;;;30.70;12.52;;;;;;;;;;4992645;28;20039;-70
2023/01/29 09:16:42;;;;;;;31.25;13.70;;;;;;;;;;4994976;28;20014;-71
2023/01/29 09:19:08;;;;;;;25.45;11.15;;;;;;;;;;4996114;28;20136;-70
2023/01/29 09:21:33;;;;;;;30.50;12.55;;;;;;;;;;4995918;28;20026;-72
2023/01/29 09:23:58;;;;;;;32.85;13.93;;;;;;;;;;4995935;28;20026;-69
2023/01/29 09:26:24;;;;;;;37.10;14.48;;;;;;;;;;4995925;28;20023;-72
2023/01/29 09:28:49;;;;;;;29.17;13.10;;;;;;;;;;4995512;28;20057;-70
2023/01/29 09:31:15;;;;;;;31.75;12.65;;;;;;;;;;4995858;28;20042;-69
2023/01/29 09:33:40;;;;;;;29.50;13.45;;;;;;;;;;5015425;28;20073;-70
2023/01/29 09:36:06;;;;;;;28.67;13.07;;;;;;;;;;5015038;28;20017;-72
2023/01/29 09:38:31;;;;;;;33.90;13.15;;;;;;;;;;5015326;28;20034;-66
2023/01/29 09:41:25;;;;;;;32.80;12.35;;;;;;;;;;5015020;28;20022;-70
2023/01/29 09:43:55;;;;;;;37.30;13.60;;;;;;;;;;5015142;28;20026;-72
2023/01/29 09:46:35;;;;;;;;;;;;;;;;;;5015608;28;20033;-72
2023/01/29 09:49:27;;;;;;;30.08;12.35;;;;;;;;;;5015223;28;20290;-72
2023/01/29 09:52:01;;;;;;;24.30;10.43;;;;;;;;;;5015048;28;20026;-72
2023/01/29 09:54:32;;;;;;;27.25;10.98;;;;;;;;;;5013774;28;20041;-71
2023/01/29 09:56:59;;;;;;;26.83;10.73;;;;;;;;;;5015000;28;20029;-70
2023/01/29 09:59:28;;;;;;;25.65;11.05;;;;;;;;;;5014583;28;20021;-71
2023/01/29 10:02:27;;;;;;;20.90;8.95;;;;;;;;;;5014991;28;20073;-71
2023/01/29 10:05:11;;;;;;;25.55;10.50;;;;;;;;;;5014727;28;20471;-72
2023/01/29 10:08:21;;;;;;;27.65;12.20;;;;;;;;;;5014505;28;20026;-70
2023/01/29 10:10:50;;;;;;;26.97;11.97;;;;;;;;;;4973390;28;20054;-71
2023/01/29 10:13:43;;;;;;;30.13;12.77;;;;;;;;;;4973171;28;20039;-71
2023/01/29 10:16:28;;;;;;;28.17;11.55;;;;;;;;;;4973561;28;20035;-71
2023/01/29 10:19:06;;;;;;;30.13;11.68;;;;;;;;;;4973331;28;20049;-71
2023/01/29 10:21:31;;;;;;;16.98;8.45;;;;;;;;;;4973301;28;20051;-72
2023/01/29 10:24:11;;;;;;;23.88;11.65;;;;;;;;;;4960699;28;20110;-71
2023/01/29 10:26:39;;;;;;;29.40;13.52;;;;;;;;;;4954114;28;20122;-71
2023/01/29 10:29:06;;;;;;;29.67;12.20;;;;;;;;;;4953502;29;20045;-70
2023/01/29 10:31:38;;;;;;;26.00;11.45;;;;;;;;;;4960950;28;20047;-69
2023/01/29 10:34:09;;;;;;;30.63;13.05;;;;;;;;;;4963464;28;20078;-70
2023/01/29 10:36:41;;;;;;;28.42;12.68;;;;;;;;;;4962524;28;20031;-69
2023/01/29 10:39:25;;;;;;;25.95;11.82;;;;;;;;;;4959074;28;20039;-69
2023/01/29 10:42:22;;;;;;;29.75;12.90;;;;;;;;;;4953568;28;20023;-69
2023/01/29 10:45:04;;;;;;;28.05;12.38;;;;;;;;;;4974324;28;20049;-68
2023/01/29 10:47:45;;;;;;;27.45;11.93;;;;;;;;;;4994026;28;20026;-68
2023/01/29 10:50:13;;;;;;;;;;;;;;;;;;4994679;28;20442;-70
2023/01/29 10:53:09;;;;;;;28.63;10.95;;;;;;;;;;4994138;28;19963;-70
2023/01/29 10:56:02;;;;;;;23.70;11.00;;;;;;;;;;4994023;28;20022;-70
2023/01/29 10:58:50;;;;;;;29.13;11.93;;;;;;;;;;4994256;28;20444;-68
2023/01/29 11:01:15;;;;;;;26.40;10.95;;;;;;;;;;4994189;28;20061;-68
2023/01/29 11:03:41;;;;;;;28.30;12.85;;;;;;;;;;4993394;28;20057;-68
2023/01/29 11:06:24;;;;;;;29.15;14.02;;;;;;;;;;4994089;28;20422;-69
2023/01/29 11:08:58;;;;;;;27.83;12.57;;;;;;;;;;4993928;28;20028;-69
2023/01/29 11:12:01;;;;;;;28.50;13.27;;;;;;;;;;4993607;28;20471;-69
2023/01/29 11:14:35;;;;;;;28.85;13.20;;;;;;;;;;4933828;29;20043;-70
2023/01/29 11:17:00;;;;;;;25.13;12.38;;;;;;;;;;4933908;29;20059;-69
2023/01/29 11:19:40;;;;;;;21.95;10.38;;;;;;;;;;4929625;29;20130;-70
2023/01/29 11:22:16;;;;;;;20.48;10.20;;;;;;;;;;4932767;29;20508;-68
2023/01/29 11:24:42;;;;;;;23.35;11.82;;;;;;;;;;4933183;29;20031;-70
2023/01/29 11:27:25;;;;;;;25.65;12.55;;;;;;;;;;4933722;29;20032;-70
2023/01/29 11:29:54;;;;;;;24.27;11.45;;;;;;;;;;4931666;29;20118;-70
2023/01/29 11:32:20;;;;;;;24.52;11.98;;;;;;;;;;4942802;29;20520;-68
2023/01/29 11:35:02;;;;;;;18.88;9.15;;;;;;;;;;4933755;29;20038;-71
2023/01/29 11:37:38;;;;;;;24.52;11.80;;;;;;;;;;4933284;29;20401;-71
2023/01/29 11:40:31;;;;;;;21.70;10.25;;;;;;;;;;4933755;29;20047;-69
2023/01/29 11:43:20;;;;;;;21.40;11.50;;;;;;;;;;4933063;29;20190;-69
2023/01/29 11:45:48;;;;;;;20.88;10.40;;;;;;;;;;4933338;29;20079;-70
2023/01/29 11:48:19;;;;;;;16.92;8.50;;;;;;;;;;4933229;29;20063;-71
2023/01/29 11:51:02;;;;;;;19.02;10.32;;;;;;;;;;4955480;28;20490;-70
2023/01/29 11:53:33;;;;;;;22.35;10.70;;;;;;;;;;4992976;28;20037;-69
2023/01/29 11:55:58;;;;;;;21.65;9.43;;;;;;;;;;4992943;28;20041;-69
2023/01/29 11:58:31;;;;;;;20.67;9.90;;;;;;;;;;4992978;28;20026;-71
2023/01/29 12:00:58;;;;;;;16.23;8.80;;;;;;;;;;4992959;28;20491;-71
2023/01/29 12:03:40;;;;;;;13.63;7.47;;;;;;;;;;4993049;28;20033;-69
2023/01/29 12:06:23;;;;;;;17.50;8.32;;;;;;;;;;4992616;28;20034;-68
2023/01/29 12:08:55;;;;;;;15.77;7.45;;;;;;;;;;4992783;28;20041;-69
2023/01/29 12:11:28;;;;;;;11.30;5.50;;;;;;;;;;4992804;28;20105;-69
2023/01/29 12:13:59;;;;;;;14.10;7.63;;;;;;;;;;4992950;28;20384;-70
2023/01/29 12:16:56;;;;;;;13.48;6.93;;;;;;;;;;4995792;28;20376;-72
2023/01/29 12:19:38;;;;;;;13.23;7.10;;;;;;;;;;4996853;28;20062;-71
2023/01/29 12:22:21;;;;;;;14.15;7.53;;;;;;;;;;4997025;28;20075;-72
2023/01/29 12:24:56;;;;;;;14.25;7.40;;;;;;;;;;4996490;28;20407;-71
2023/01/29 12:27:30;;;;;;;12.13;6.82;;;;;;;;;;4996754;28;20035;-71
2023/01/29 12:30:11;;;;;;;10.88;6.40;;;;;;;;;;4996666;28;20037;-71
2023/01/29 12:32:54;;;;;;;15.00;7.93;;;;;;;;;;4996749;28;20045;-72
2023/01/29 12:35:42;;;;;;;13.30;7.32;;;;;;;;;;4996664;28;20022;-72
2023/01/29 12:38:17;;;;;;;9.60;6.00;;;;;;;;;;4996397;28;20491;-71
2023/01/29 12:40:50;;;;;;;10.77;6.25;;;;;;;;;;4996758;28;20031;-72
2023/01/29 12:43:20;;;;;;;9.57;4.80;;;;;;;;;;4996572;28;20541;-71
2023/01/29 12:45:51;;;;;;;12.70;6.40;;;;;;;;;;4996703;28;20378;-71
2023/01/29 12:48:29;;;;;;;13.77;7.72;;;;;;;;;;4996556;28;20061;-70
2023/01/29 12:51:02;;;;;;;10.45;5.80;;;;;;;;;;4996424;28;20117;-70
2023/01/29 12:53:37;;;;;;;10.40;5.57;;;;;;;;;;4996174;28;20041;-71
2023/01/29 12:56:09;;;;;;;12.70;6.80;;;;;;;;;;4996381;28;20056;-69
2023/01/29 12:58:45;;;;;;;11.93;6.28;;;;;;;;;;4996372;28;20031;-69
2023/01/29 13:01:20;;;;;;;13.57;7.25;;;;;;;;;;4995063;28;20022;-70
2023/01/29 13:03:55;;;;;;;12.70;7.28;;;;;;;;;;4996311;28;20375;-70
2023/01/29 13:06:32;;;;;;;12.00;6.95;;;;;;;;;;4996080;28;20085;-71
2023/01/29 13:09:02;;;;;;;11.93;6.53;;;;;;;;;;4996136;28;20026;-69
2023/01/29 13:11:47;;;;;;;14.52;7.38;;;;;;;;;;4995833;28;20027;-69
2023/01/29 13:14:23;;;;;;;15.38;7.28;;;;;;;;;;4996028;28;20031;-70
2023/01/29 13:16:54;;;;;;;13.25;7.28;;;;;;;;;;4995898;28;20533;-70
2023/01/29 13:19:35;;;;;;;14.95;8.15;;;;;;;;;;4995649;28;20395;-70
2023/01/29 13:22:06;;;;;;;14.95;7.38;;;;;;;;;;4995722;28;20027;-69
2023/01/29 13:24:39;;;;;;;15.73;8.82;;;;;;;;;;4996006;28;20080;-70
2023/01/29 13:27:05;;;;;;;16.80;8.40;;;;;;;;;;5010357;28;20084;-71
2023/01/29 13:29:31;;;;;;;16.02;8.35;;;;;;;;;;4995551;28;20026;-69
2023/01/29 13:32:02;;;;;;;13.65;8.02;;;;;;;;;;4995276;28;20053;-70
2023/01/29 13:34:44;;;;;;;13.85;7.80;;;;;;;;;;4995603;28;20376;-70
2023/01/29 13:37:16;;;;;;;15.70;8.48;;;;;;;;;;4995419;28;20022;-70
2023/01/29 13:39:49;;;;;;;17.00;8.35;;;;;;;;;;4995565;28;20082;-70
2023/01/29 13:42:32;;;;;;;13.75;8.40;;;;;;;;;;4995172;28;20073;-71
2023/01/29 13:45:01;;;;;;;15.18;8.77;;;;;;;;;;4995565;28;20026;-70
2023/01/29 13:47:34;;;;;;;12.55;7.70;;;;;;;;;;4995420;28;20105;-69
2023/01/29 13:50:19;;;;;;;16.77;8.52;;;;;;;;;;4995139;28;20033;-70
2023/01/29 13:52:52;;;;;;;19.67;9.88;;;;;;;;;;4995492;28;20053;-71
2023/01/29 13:55:21;;;;;;;18.02;9.68;;;;;;;;;;4995224;28;20357;-71
2023/01/29 13:57:47;;;;;;;18.02;9.00;;;;;;;;;;4995286;28;20042;-71
2023/01/29 14:00:29;;;;;;;22.00;10.85;;;;;;;;;;4994972;28;20092;-69
2023/01/29 14:03:04;;;;;;;19.45;10.85;;;;;;;;;;4995216;28;20125;-70
2023/01/29 14:05:29;;;;;;;20.45;10.68;;;;;;;;;;4994660;28;20026;-70
2023/01/29 14:07:59;;;;;;;20.73;11.13;;;;;;;;;;4995071;28;20033;-71
2023/01/29 14:10:30;;;;;;;21.53;11.83;;;;;;;;;;4994968;28;20030;-70
2023/01/29 14:13:10;;;;;;;17.95;9.68;;;;;;;;;;4994849;28;20033;-71
2023/01/29 14:15:38;;;;;;;20.23;11.32;;;;;;;;;;4994832;28;20053;-69
2023/01/29 14:18:09;;;;;;;17.20;10.25;;;;;;;;;;4994965;28;20026;-71
2023/01/29 14:20:45;;;;;;;21.20;11.43;;;;;;;;;;4994591;28;20026;-68
2023/01/29 14:23:27;;;;;;;22.45;11.70;;;;;;;;;;4994832;28;20076;-70
2023/01/29 14:25:53;;;;;;;19.58;11.10;;;;;;;;;;4994746;28;20027;-70
2023/01/29 14:28:27;;;;;;;20.33;11.63;;;;;;;;;;4994538;28;20537;-69
2023/01/29 14:30:54;;;;;;;22.20;12.30;;;;;;;;;;4994391;28;20057;-69
2023/01/29 14:33:39;;;;;;;19.02;11.18;;;;;;;;;;4994024;28;20499;-71
2023/01/29 14:36:11;;;;;;;20.45;10.98;;;;;;;;;;4994446;28;20023;-71
2023/01/29 14:38:38;;;;;;;18.73;11.10;;;;;;;;;;4993677;28;20022;-71
2023/01/29 14:41:28;;;;;;;20.67;12.07;;;;;;;;;;4994518;28;20072;-72
2023/01/29 14:44:31;;;;;;;20.27;10.85;;;;;;;;;;4994272;28;20038;-71
2023/01/29 14:46:56;;;;;;;21.63;11.98;;;;;;;;;;4994232;28;20049;-72
2023/01/29 14:49:53;;;;;;;20.48;10.88;;;;;;;;;;4993869;28;20101;-71
2023/01/29 14:52:22;;;;;;;19.73;10.35;;;;;;;;;;4994174;28;20117;-71
2023/01/29 14:54:50;;;;;;;21.77;11.27;;;;;;;;;;4993959;28;20030;-71
2023/01/29 14:57:16;;;;;;;19.80;11.18;;;;;;;;;;4994035;28;20499;-71
2023/01/29 14:59:55;;;;;;;20.00;11.57;;;;;;;;;;5002157;28;20022;-72
2023/01/29 15:02:35;;;;;;;20.00;10.65;;;;;;;;;;5013393;28;20407;-69
2023/01/29 15:05:03;;;;;;;21.13;12.05;;;;;;;;;;5013637;28;20034;-71
2023/01/29 15:07:41;;;;;;;19.75;10.75;;;;;;;;;;5013510;28;20179;-72
2023/01/29 15:10:15;;;;;;;22.35;11.27;;;;;;;;;;5013613;28;20447;-69
2023/01/29 15:12:49;;;;;;;22.50;11.70;;;;;;;;;;5013298;28;20034;-70
2023/01/29 15:15:23;;;;;;;19.98;10.38;;;;;;;;;;5013575;28;20029;-71
2023/01/29 15:18:03;;;;;;;22.92;11.15;;;;;;;;;;5013003;28;20486;-72
2023/01/29 15:20:35;;;;;;;25.30;11.40;;;;;;;;;;5013441;28;20112;-71
2023/01/29 15:23:02;;;;;;;20.48;11.55;;;;;;;;;;5013255;28;20032;-71
2023/01/29 15:25:47;;;;;;;25.33;13.63;;;;;;;;;;5013128;28;20471;-70